Time;durP1;ratioP1;P1;durP2;ratioP2;P2;SDS_P1;SDS_P2;PMS_P1;PMS_P2;Temp;Humidity;BMP_temperature;BMP_pressure;BME280_temperature;BME280_humidity;BME280_pressure;Samples;Min_cycle;Max_cycle;Signal;HPM_P1;HPM_P2
2024/01/06 00:01:03;;;;;;;9.02;2.38;;;5.30;99.90;;;;;;4951354;28;20354;-77
2024/01/06 00:03:28;;;;;;;5.72;1.90;;;5.40;99.90;;;;;;4958911;28;20106;-78
2024/01/06 00:05:54;;;;;;;5.07;1.90;;;5.30;99.90;;;;;;4960123;28;20054;-76
2024/01/06 00:08:20;;;;;;;4.75;1.52;;;5.30;99.90;;;;;;4961386;28;20038;-77
2024/01/06 00:10:45;;;;;;;4.45;1.80;;;5.30;99.90;;;;;;4960788;28;20164;-77
2024/01/06 00:13:11;;;;;;;5.00;1.92;;;5.20;99.90;;;;;;4960678;28;20110;-76
2024/01/06 00:15:37;;;;;;;6.57;2.38;;;5.10;99.90;;;;;;4958407;28;20027;-77
2024/01/06 00:18:03;;;;;;;6.68;1.98;;;5.10;99.90;;;;;;4953792;28;20358;-76
2024/01/06 00:20:28;;;;;;;5.07;1.90;;;5.10;99.90;;;;;;4965724;28;20038;-78
2024/01/06 00:22:56;;;;;;;4.80;1.63;;;5.10;99.90;;;;;;4963948;28;20085;-76
2024/01/06 00:25:22;;;;;;;4.60;2.00;;;5.10;99.90;;;;;;4964638;28;20105;-77
2024/01/06 00:27:48;;;;;;;5.60;1.30;;;5.00;99.90;;;;;;4963554;28;20584;-78
2024/01/06 00:30:14;;;;;;;6.05;1.75;;;5.00;99.90;;;;;;4962217;28;20085;-76
2024/01/06 00:32:39;;;;;;;2.75;1.20;;;5.00;99.90;;;;;;4963762;28;20102;-77
2024/01/06 00:35:05;;;;;;;5.35;1.92;;;5.00;99.90;;;;;;4966117;28;20383;-76
2024/01/06 00:37:31;;;;;;;6.78;1.73;;;5.00;99.90;;;;;;4964371;28;20037;-77
2024/01/06 00:39:57;;;;;;;5.80;1.27;;;5.10;99.90;;;;;;4961397;28;20027;-77
2024/01/06 00:42:22;;;;;;;9.00;1.63;;;5.10;99.90;;;;;;4965301;28;20031;-77
2024/01/06 00:44:48;;;;;;;4.05;1.33;;;5.10;99.90;;;;;;4964114;28;20460;-77
2024/01/06 00:47:14;;;;;;;6.93;2.33;;;5.10;99.90;;;;;;4963006;28;20602;-76
2024/01/06 00:49:39;;;;;;;8.10;1.63;;;5.10;99.90;;;;;;4965778;28;20029;-76
2024/01/06 00:52:05;;;;;;;5.18;1.73;;;5.10;99.90;;;;;;4961759;28;20032;-77
2024/01/06 00:54:31;;;;;;;4.78;1.50;;;5.10;99.90;;;;;;4964062;28;20055;-77
2024/01/06 00:56:57;;;;;;;6.15;1.92;;;5.10;99.90;;;;;;4960571;28;20361;-76
2024/01/06 00:59:22;;;;;;;6.05;1.75;;;5.20;99.90;;;;;;4967692;28;20099;-78
2024/01/06 01:01:48;;;;;;;7.65;2.35;;;5.10;99.90;;;;;;4963118;28;20482;-77
2024/01/06 01:04:13;;;;;;;7.97;1.90;;;5.10;99.90;;;;;;4962941;28;20038;-78
2024/01/06 01:06:39;;;;;;;6.32;1.92;;;5.10;99.90;;;;;;4963524;28;20043;-77
2024/01/06 01:09:05;;;;;;;6.70;2.17;;;5.10;99.90;;;;;;4965246;28;20023;-76
2024/01/06 01:11:31;;;;;;;3.92;1.52;;;5.10;99.90;;;;;;4960746;28;20027;-78
2024/01/06 01:13:56;;;;;;;4.18;1.70;;;5.10;99.90;;;;;;4960857;28;20031;-78
2024/01/06 01:16:22;;;;;;;5.30;1.50;;;5.00;99.90;;;;;;4965030;28;20368;-76
2024/01/06 01:18:47;;;;;;;4.25;1.30;;;5.00;99.90;;;;;;4963343;28;20110;-80
2024/01/06 01:21:15;;;;;;;6.00;1.13;;;5.00;99.90;;;;;;4962209;28;20065;-77
2024/01/06 01:23:40;;;;;;;3.33;1.20;;;4.90;99.90;;;;;;4963264;28;20094;-76
2024/01/06 01:26:06;;;;;;;4.50;1.60;;;5.00;99.90;;;;;;4960995;28;20027;-77
2024/01/06 01:28:32;;;;;;;5.05;1.33;;;5.00;99.90;;;;;;4963356;28;20027;-77
2024/01/06 01:30:57;;;;;;;5.40;1.85;;;5.00;99.90;;;;;;4962451;28;20453;-77
2024/01/06 01:33:24;;;;;;;4.28;1.20;;;5.00;99.90;;;;;;4948041;28;20061;-77
2024/01/06 01:35:49;;;;;;;5.25;1.38;;;4.90;99.90;;;;;;4962548;28;20038;-77
2024/01/06 01:38:15;;;;;;;8.90;1.38;;;4.90;99.90;;;;;;4961113;28;20035;-79
2024/01/06 01:40:40;;;;;;;7.65;1.65;;;4.90;99.90;;;;;;4962727;28;20508;-79
2024/01/06 01:43:15;;;;;;;5.38;1.45;;;4.90;99.90;;;;;;4957934;28;20098;-79
2024/01/06 01:45:40;;;;;;;9.65;2.15;;;5.00;99.90;;;;;;4954635;28;20034;-78
2024/01/06 01:48:06;;;;;;;4.15;1.70;;;4.90;99.90;;;;;;4960636;28;20027;-79
2024/01/06 01:50:32;;;;;;;6.68;1.92;;;4.90;99.90;;;;;;4963255;28;20523;-78
2024/01/06 01:52:59;;;;;;;6.65;1.67;;;4.90;99.90;;;;;;4962501;28;20027;-77
2024/01/06 01:55:25;;;;;;;5.07;1.73;;;4.90;99.90;;;;;;4962500;28;20050;-77
2024/01/06 01:57:51;;;;;;;5.70;1.65;;;4.90;99.90;;;;;;4963021;28;20027;-77
2024/01/06 02:00:16;;;;;;;6.28;1.15;;;4.80;99.90;;;;;;4964229;28;20030;-80
2024/01/06 02:02:42;;;;;;;6.32;1.50;;;4.80;99.90;;;;;;4946909;28;20416;-79
2024/01/06 02:05:08;;;;;;;5.25;1.67;;;4.80;99.90;;;;;;4933439;29;20028;-79
2024/01/06 02:07:33;;;;;;;9.57;1.48;;;4.80;99.90;;;;;;4927543;29;20035;-78
2024/01/06 02:09:59;;;;;;;10.05;1.92;;;4.80;99.90;;;;;;4923607;29;20020;-79
2024/01/06 02:12:24;;;;;;;9.93;1.70;;;4.70;99.90;;;;;;4934665;29;20477;-80
2024/01/06 02:14:50;;;;;;;3.65;1.60;;;4.80;99.90;;;;;;4934913;29;20024;-78
2024/01/06 02:17:16;;;;;;;6.60;1.80;;;4.80;99.90;;;;;;4930593;29;20158;-80
2024/01/06 02:19:41;;;;;;;8.10;1.77;;;4.70;99.90;;;;;;4934264;29;20059;-80
2024/01/06 02:22:07;;;;;;;10.25;1.40;;;4.70;99.90;;;;;;4930565;29;20106;-79
2024/01/06 02:24:32;;;;;;;5.60;1.77;;;4.80;99.90;;;;;;4934307;29;20035;-80
2024/01/06 02:26:58;;;;;;;4.78;1.60;;;4.80;99.90;;;;;;4933634;29;20100;-82
2024/01/06 02:29:24;;;;;;;3.42;1.42;;;4.80;99.90;;;;;;4933751;29;20032;-82
2024/01/06 02:31:49;;;;;;;3.83;1.42;;;4.80;99.90;;;;;;4934737;29;20024;-81
2024/01/06 02:34:15;;;;;;;5.25;1.42;;;4.80;99.90;;;;;;4933194;29;21423;-82
2024/01/06 02:36:40;;;;;;;5.43;1.23;;;4.80;99.90;;;;;;4931529;29;20036;-79
2024/01/06 02:39:06;;;;;;;5.40;1.23;;;4.80;99.90;;;;;;4931177;29;20079;-80
2024/01/06 02:41:32;;;;;;;5.05;1.30;;;4.80;99.90;;;;;;4933847;29;20027;-80
2024/01/06 02:43:58;;;;;;;10.75;1.27;;;4.80;99.90;;;;;;4932644;29;20032;-84
2024/01/06 02:46:23;;;;;;;5.82;1.15;;;4.80;99.90;;;;;;4934234;29;20527;-81
2024/01/06 02:48:49;;;;;;;8.30;1.50;;;4.80;99.90;;;;;;4933140;29;20034;-81
2024/01/06 02:51:14;;;;;;;6.15;1.17;;;4.80;99.90;;;;;;4932999;29;20155;-80
2024/01/06 02:53:40;;;;;;;4.45;1.30;;;4.80;99.90;;;;;;4933219;29;20090;-80
2024/01/06 02:56:10;;;;;;;3.97;1.20;;;4.80;99.90;;;;;;4925810;29;20075;-80
2024/01/06 02:58:36;;;;;;;3.92;0.90;;;4.80;99.90;;;;;;4933512;29;20031;-79
2024/01/06 03:01:02;;;;;;;7.15;1.33;;;4.80;99.90;;;;;;4933026;29;20142;-77
2024/01/06 03:03:27;;;;;;;3.97;1.05;;;4.70;99.90;;;;;;4949219;28;20083;-77
2024/01/06 03:05:53;;;;;;;7.75;1.35;;;4.80;99.90;;;;;;4952071;28;20027;-76
2024/01/06 03:08:19;;;;;;;5.43;1.27;;;4.80;99.90;;;;;;4952124;29;20106;-76
2024/01/06 03:10:44;;;;;;;7.85;1.30;;;4.80;99.90;;;;;;4952927;28;20031;-77
2024/01/06 03:13:10;;;;;;;6.43;1.35;;;4.80;99.90;;;;;;4951775;28;20755;-78
2024/01/06 03:15:35;;;;;;;5.65;1.50;;;4.80;99.90;;;;;;4952214;28;20031;-77
2024/01/06 03:18:01;;;;;;;4.00;1.30;;;4.70;99.90;;;;;;4951166;28;20446;-76
2024/01/06 03:20:27;;;;;;;7.70;1.50;;;4.70;99.90;;;;;;4953270;28;20034;-76
2024/01/06 03:22:52;;;;;;;5.35;1.50;;;4.60;99.90;;;;;;4952050;28;20118;-76
2024/01/06 03:25:18;;;;;;;3.70;1.30;;;4.70;99.90;;;;;;4952431;29;20036;-76
2024/01/06 03:27:43;;;;;;;5.00;1.30;;;4.70;99.90;;;;;;4952521;28;20036;-76
2024/01/06 03:30:10;;;;;;;4.68;1.10;;;4.60;99.90;;;;;;4951616;28;20031;-76
2024/01/06 03:32:35;;;;;;;10.75;3.08;;;4.60;99.90;;;;;;4952379;29;20069;-78
2024/01/06 03:35:01;;;;;;;4.70;1.25;;;4.60;99.90;;;;;;4951897;29;20059;-76
2024/01/06 03:37:26;;;;;;;5.40;1.10;;;4.50;99.90;;;;;;4951844;28;20034;-76
2024/01/06 03:39:52;;;;;;;4.60;1.40;;;4.50;99.90;;;;;;4952054;28;20046;-77
2024/01/06 03:42:17;;;;;;;4.93;1.15;;;4.50;99.90;;;;;;4951845;29;20062;-78
2024/01/06 03:44:43;;;;;;;4.93;1.38;;;4.50;99.90;;;;;;4952617;29;20036;-77
2024/01/06 03:47:09;;;;;;;5.78;1.30;;;4.50;99.90;;;;;;4950822;28;20038;-77
2024/01/06 03:49:34;;;;;;;4.35;1.10;;;4.50;99.90;;;;;;4951274;28;20038;-75
2024/01/06 03:52:00;;;;;;;6.78;1.13;;;4.40;99.90;;;;;;4951505;28;20045;-75
2024/01/06 03:54:25;;;;;;;4.30;1.20;;;4.40;99.90;;;;;;4954695;28;20035;-75
2024/01/06 03:56:51;;;;;;;6.03;1.35;;;4.40;99.90;;;;;;4956382;28;20042;-76
2024/01/06 03:59:16;;;;;;;5.13;1.45;;;4.40;99.90;;;;;;4955307;29;20162;-77
2024/01/06 04:01:42;;;;;;;4.68;1.20;;;4.40;99.90;;;;;;4957370;28;20369;-77
2024/01/06 04:04:08;;;;;;;6.80;1.55;;;4.40;99.90;;;;;;4954784;28;20027;-76
2024/01/06 04:06:34;;;;;;;5.38;1.30;;;4.40;99.90;;;;;;4960500;28;20050;-76
2024/01/06 04:09:00;;;;;;;5.97;1.33;;;4.40;99.90;;;;;;4959370;28;20542;-76
2024/01/06 04:11:26;;;;;;;2.63;1.10;;;4.40;99.90;;;;;;4961913;28;20374;-75
2024/01/06 04:13:52;;;;;;;4.88;1.10;;;4.40;99.90;;;;;;4959317;28;20038;-76
2024/01/06 04:16:17;;;;;;;5.75;1.10;;;4.40;99.90;;;;;;4962072;28;20039;-77
2024/01/06 04:18:43;;;;;;;4.53;1.10;;;4.40;99.90;;;;;;4961684;28;20030;-77
2024/01/06 04:21:08;;;;;;;6.15;1.23;;;4.40;99.90;;;;;;4957884;28;20073;-77
2024/01/06 04:23:35;;;;;;;3.90;1.23;;;4.40;99.90;;;;;;4974231;28;20065;-77
2024/01/06 04:26:01;;;;;;;5.75;1.50;;;4.40;99.90;;;;;;4961503;28;20395;-77
2024/01/06 04:28:27;;;;;;;4.55;1.33;;;4.40;99.90;;;;;;4965398;28;20031;-75
2024/01/06 04:30:53;;;;;;;4.65;1.35;;;4.40;99.90;;;;;;4973445;28;20026;-75
2024/01/06 04:33:18;;;;;;;5.15;1.17;;;4.40;99.90;;;;;;4962460;28;20171;-75
2024/01/06 04:35:44;;;;;;;4.07;1.02;;;4.40;99.90;;;;;;4966692;28;20019;-76
2024/01/06 04:38:10;;;;;;;5.28;1.45;;;4.30;99.90;;;;;;4959736;28;20031;-74
2024/01/06 04:40:36;;;;;;;3.60;1.20;;;4.30;99.90;;;;;;4974299;28;20527;-76
2024/01/06 04:43:01;;;;;;;6.90;1.40;;;4.30;99.90;;;;;;4971860;28;20039;-76
2024/01/06 04:45:27;;;;;;;4.07;1.13;;;4.30;99.90;;;;;;4984275;28;20027;-76
2024/01/06 04:47:53;;;;;;;7.72;1.50;;;4.30;99.90;;;;;;4983558;28;20027;-76
2024/01/06 04:50:18;;;;;;;3.20;1.20;;;4.30;99.90;;;;;;4977284;28;20091;-77
2024/01/06 04:52:44;;;;;;;5.43;1.55;;;4.30;99.90;;;;;;4970424;28;20114;-77
2024/01/06 04:55:10;;;;;;;7.40;1.95;;;4.20;99.90;;;;;;4952416;28;20032;-77
2024/01/06 04:57:36;;;;;;;7.93;1.65;;;4.20;99.90;;;;;;4966769;28;20035;-77
2024/01/06 05:00:03;;;;;;;3.45;1.40;;;4.20;99.90;;;;;;4960507;28;20070;-78
2024/01/06 05:02:29;;;;;;;5.40;1.35;;;4.30;99.90;;;;;;4962381;28;20955;-75
2024/01/06 05:04:55;;;;;;;5.18;1.23;;;4.30;99.90;;;;;;4962234;28;20031;-76
2024/01/06 05:07:20;;;;;;;2.97;1.30;;;4.20;99.90;;;;;;4962858;28;20038;-77
2024/01/06 05:09:46;;;;;;;4.90;1.38;;;4.20;99.90;;;;;;4965711;28;20479;-76
2024/01/06 05:12:11;;;;;;;4.45;1.00;;;4.30;99.90;;;;;;4945634;28;20062;-77
2024/01/06 05:14:37;;;;;;;6.53;1.05;;;4.40;99.90;;;;;;4954508;29;20539;-77
2024/01/06 05:17:03;;;;;;;4.20;1.05;;;4.30;99.90;;;;;;4955791;28;20024;-75
2024/01/06 05:19:29;;;;;;;5.85;1.63;;;4.40;99.90;;;;;;4954321;28;20023;-77
2024/01/06 05:21:55;;;;;;;5.03;1.80;;;4.30;99.90;;;;;;4955255;28;20043;-75
2024/01/06 05:24:20;;;;;;;3.97;1.17;;;4.30;99.90;;;;;;4956226;28;20024;-77
2024/01/06 05:26:46;;;;;;;4.35;1.02;;;4.30;99.90;;;;;;4954799;28;20464;-76
2024/01/06 05:29:11;;;;;;;5.82;1.50;;;4.30;99.90;;;;;;4952772;28;20090;-74
2024/01/06 05:31:37;;;;;;;3.17;1.00;;;4.40;99.90;;;;;;4955871;28;20055;-74
2024/01/06 05:34:03;;;;;;;7.07;2.30;;;4.40;99.90;;;;;;4952777;29;20468;-77
2024/01/06 05:36:28;;;;;;;6.53;2.10;;;4.30;99.90;;;;;;4956003;28;20098;-76
2024/01/06 05:38:54;;;;;;;7.72;1.98;;;4.30;99.90;;;;;;4955330;28;20023;-77
2024/01/06 05:41:19;;;;;;;4.35;1.67;;;4.30;99.90;;;;;;4955059;28;20548;-76
2024/01/06 05:43:45;;;;;;;9.48;1.52;;;4.30;99.90;;;;;;4954332;28;20031;-76
2024/01/06 05:46:11;;;;;;;6.07;1.65;;;4.40;99.90;;;;;;4952490;29;20067;-76
2024/01/06 05:48:37;;;;;;;3.45;1.10;;;4.50;99.90;;;;;;4951139;29;20027;-76
2024/01/06 05:51:05;;;;;;;4.32;1.73;;;4.50;99.90;;;;;;4958120;28;20392;-76
2024/01/06 05:53:31;;;;;;;4.43;1.15;;;4.50;99.90;;;;;;4943744;29;20039;-78
2024/01/06 05:55:57;;;;;;;5.05;1.17;;;4.60;99.90;;;;;;4952284;28;20038;-75
2024/01/06 05:58:23;;;;;;;5.70;1.23;;;4.50;99.90;;;;;;4954832;28;20082;-76
2024/01/06 06:00:48;;;;;;;4.05;0.95;;;4.50;99.90;;;;;;4955458;28;20049;-76
2024/01/06 06:03:14;;;;;;;5.03;1.55;;;4.50;99.90;;;;;;4956342;28;20043;-75
2024/01/06 06:05:39;;;;;;;7.95;1.30;;;4.50;99.90;;;;;;4960521;28;20114;-76
2024/01/06 06:08:05;;;;;;;5.45;1.17;;;4.50;99.90;;;;;;4963123;28;20027;-77
2024/01/06 06:10:40;;;;;;;5.13;1.30;;;4.50;99.90;;;;;;4963459;28;20023;-77
2024/01/06 06:13:09;;;;;;;2.25;0.90;;;4.50;99.90;;;;;;4956721;28;20133;-77
2024/01/06 06:15:35;;;;;;;2.72;1.30;;;4.40;99.90;;;;;;4963539;28;20488;-76
2024/01/06 06:18:00;;;;;;;3.25;1.05;;;4.40;99.90;;;;;;4952472;28;20051;-77
2024/01/06 06:20:26;;;;;;;6.95;1.10;;;4.40;99.90;;;;;;4961503;28;20023;-76
2024/01/06 06:22:52;;;;;;;5.20;1.33;;;4.40;99.90;;;;;;4961828;28;20039;-76
2024/01/06 06:25:17;;;;;;;4.35;1.42;;;4.40;99.90;;;;;;4962728;28;20092;-78
2024/01/06 06:27:43;;;;;;;4.40;1.38;;;4.40;99.90;;;;;;4958923;28;20030;-79
2024/01/06 06:30:09;;;;;;;4.70;1.20;;;4.30;99.90;;;;;;4961925;28;20031;-76
2024/01/06 06:32:34;;;;;;;5.13;1.40;;;4.40;99.90;;;;;;4964059;28;20110;-78
2024/01/06 06:35:00;;;;;;;3.90;1.25;;;4.40;99.90;;;;;;4962961;28;20443;-78
2024/01/06 06:37:25;;;;;;;7.03;1.33;;;4.40;99.90;;;;;;4961271;28;20019;-78
2024/01/06 06:39:52;;;;;;;4.07;1.35;;;4.40;99.90;;;;;;4964387;28;20440;-75
2024/01/06 06:42:18;;;;;;;1.85;1.00;;;4.40;99.90;;;;;;4963238;28;20026;-77
2024/01/06 06:44:44;;;;;;;2.47;1.10;;;4.40;99.90;;;;;;4961644;28;20035;-77
2024/01/06 06:47:09;;;;;;;5.57;1.45;;;4.40;99.90;;;;;;4969683;28;20027;-77
2024/01/06 06:49:35;;;;;;;7.35;2.13;;;4.40;99.90;;;;;;4953125;28;20447;-76
2024/01/06 06:52:00;;;;;;;4.28;1.80;;;4.40;99.90;;;;;;4946711;28;20110;-75
2024/01/06 06:54:26;;;;;;;2.63;1.45;;;4.40;99.90;;;;;;4952874;29;20034;-75
2024/01/06 06:56:52;;;;;;;4.63;1.60;;;4.50;99.90;;;;;;4952842;28;20035;-75
2024/01/06 06:59:17;;;;;;;3.20;1.33;;;4.50;99.90;;;;;;4952526;28;20035;-76
2024/01/06 07:01:43;;;;;;;6.15;1.40;;;4.40;99.90;;;;;;4962656;28;20030;-76
2024/01/06 07:04:08;;;;;;;4.18;1.23;;;4.50;99.90;;;;;;4951890;28;20089;-76
2024/01/06 07:06:34;;;;;;;8.63;1.73;;;4.50;99.90;;;;;;4953102;28;20031;-75
2024/01/06 07:08:59;;;;;;;7.47;1.67;;;4.50;99.90;;;;;;4951658;28;20031;-76
2024/01/06 07:11:25;;;;;;;4.28;1.67;;;4.50;99.90;;;;;;4952634;29;20042;-76
2024/01/06 07:13:52;;;;;;;3.33;1.85;;;4.50;99.90;;;;;;4952338;28;20039;-74
2024/01/06 07:16:17;;;;;;;4.68;1.20;;;4.50;99.90;;;;;;4952565;28;20035;-74
2024/01/06 07:18:43;;;;;;;3.30;1.30;;;4.60;99.90;;;;;;4952034;28;20166;-75
2024/01/06 07:21:09;;;;;;;3.35;1.23;;;4.60;99.90;;;;;;4952475;28;20028;-81
2024/01/06 07:23:35;;;;;;;5.88;1.75;;;4.60;99.90;;;;;;4952087;28;20035;-78
2024/01/06 07:26:00;;;;;;;5.13;1.73;;;4.60;99.90;;;;;;4951562;28;20023;-74
2024/01/06 07:28:27;;;;;;;5.25;1.70;;;4.50;99.90;;;;;;4955639;28;20461;-73
2024/01/06 07:30:52;;;;;;;2.97;1.58;;;4.60;99.90;;;;;;4954859;28;20035;-73
2024/01/06 07:33:18;;;;;;;5.75;1.80;;;4.60;99.90;;;;;;4951553;28;20031;-73
2024/01/06 07:35:43;;;;;;;11.85;2.00;;;4.50;99.90;;;;;;4952770;28;20465;-71
2024/01/06 07:38:10;;;;;;;6.43;1.45;;;4.50;99.90;;;;;;4951911;28;20110;-72
2024/01/06 07:40:36;;;;;;;5.10;1.83;;;4.50;99.90;;;;;;4952614;28;20089;-72
2024/01/06 07:43:01;;;;;;;7.07;2.03;;;4.50;99.90;;;;;;4951468;28;20572;-70
2024/01/06 07:45:27;;;;;;;4.28;1.58;;;4.50;99.90;;;;;;4942883;29;20110;-71
2024/01/06 07:47:53;;;;;;;5.50;1.40;;;4.50;99.90;;;;;;4951838;28;20073;-69
2024/01/06 07:50:18;;;;;;;6.10;1.85;;;4.50;99.90;;;;;;4952231;28;20448;-75
2024/01/06 07:52:44;;;;;;;7.28;1.58;;;4.50;99.90;;;;;;4951959;28;20027;-72
2024/01/06 07:55:10;;;;;;;6.30;1.65;;;4.50;99.90;;;;;;4951692;28;20035;-73
2024/01/06 07:57:35;;;;;;;7.40;1.70;;;4.50;99.90;;;;;;4952043;28;20042;-69
2024/01/06 08:00:01;;;;;;;5.30;1.75;;;4.60;99.90;;;;;;4951929;28;20031;-71
2024/01/06 08:02:27;;;;;;;4.97;1.58;;;4.60;99.90;;;;;;4945564;28;20082;-71
2024/01/06 08:04:53;;;;;;;5.43;1.75;;;4.70;99.90;;;;;;4933167;29;20040;-69
2024/01/06 08:07:19;;;;;;;5.03;2.15;;;4.70;99.90;;;;;;4932626;29;20024;-76
2024/01/06 08:09:45;;;;;;;4.07;1.27;;;4.70;99.90;;;;;;4933365;29;20397;-71
2024/01/06 08:12:10;;;;;;;5.93;1.30;;;4.70;99.90;;;;;;4931713;29;20039;-71
2024/01/06 08:14:36;;;;;;;2.85;1.08;;;4.80;99.90;;;;;;4933105;29;20031;-72
2024/01/06 08:17:01;;;;;;;6.00;1.00;;;4.80;99.90;;;;;;4931697;29;20023;-75
2024/01/06 08:19:29;;;;;;;6.43;1.40;;;4.90;99.90;;;;;;4929386;29;20036;-74
2024/01/06 08:21:55;;;;;;;5.47;1.20;;;4.90;99.90;;;;;;4932041;29;20062;-71
2024/01/06 08:24:22;;;;;;;3.75;1.55;;;5.00;99.90;;;;;;4932559;29;20075;-74
2024/01/06 08:26:48;;;;;;;4.47;1.30;;;5.10;99.90;;;;;;4933260;29;20169;-74
2024/01/06 08:29:14;;;;;;;6.28;1.40;;;5.10;99.90;;;;;;4932017;29;20058;-73
2024/01/06 08:31:40;;;;;;;3.35;1.30;;;5.10;99.90;;;;;;4932875;29;20032;-77
2024/01/06 08:34:07;;;;;;;1.65;0.90;;;5.10;99.90;;;;;;4931199;29;20028;-74
2024/01/06 08:36:34;;;;;;;2.78;1.02;;;5.20;99.90;;;;;;4932957;29;20032;-74
2024/01/06 08:38:59;;;;;;;2.13;0.90;;;5.20;99.90;;;;;;4914812;29;20465;-73
2024/01/06 08:41:25;;;;;;;2.08;0.93;;;5.30;99.90;;;;;;4936036;29;20164;-73
2024/01/06 08:43:51;;;;;;;2.67;1.40;;;5.30;99.90;;;;;;4935256;29;20390;-73
2024/01/06 08:46:17;;;;;;;4.25;1.08;;;5.30;99.90;;;;;;4936107;29;20027;-73
2024/01/06 08:48:43;;;;;;;4.43;1.80;;;5.40;99.90;;;;;;4935813;29;20063;-83
2024/01/06 08:51:08;;;;;;;1.88;1.48;;;5.50;99.90;;;;;;4935549;29;20043;-75
2024/01/06 08:53:34;;;;;;;4.15;1.08;;;5.50;99.90;;;;;;4934945;29;20071;-75
2024/01/06 08:56:00;;;;;;;3.03;0.95;;;5.60;99.90;;;;;;4935579;29;20394;-81
2024/01/06 08:58:25;;;;;;;2.30;1.10;;;5.70;99.90;;;;;;4930357;29;20958;-75
2024/01/06 09:00:53;;;;;;;5.78;1.00;;;5.80;99.90;;;;;;4936706;29;20527;-72
2024/01/06 09:03:24;;;;;;;4.03;1.00;;;6.00;99.90;;;;;;4948977;28;20453;-77
2024/01/06 09:05:52;;;;;;;1.83;0.90;;;6.10;99.90;;;;;;4953564;28;20406;-75
2024/01/06 09:08:18;;;;;;;2.67;1.17;;;6.10;99.90;;;;;;4953019;28;20114;-72
2024/01/06 09:10:43;;;;;;;3.25;0.98;;;6.10;99.90;;;;;;4953526;28;20102;-72
2024/01/06 09:13:10;;;;;;;1.83;1.30;;;6.10;99.90;;;;;;4951992;28;20027;-78
2024/01/06 09:15:35;;;;;;;2.08;1.00;;;6.10;99.90;;;;;;4953741;28;20043;-73
2024/01/06 09:18:02;;;;;;;2.70;0.90;;;6.20;99.90;;;;;;4952554;28;20039;-75
2024/01/06 09:20:28;;;;;;;6.28;1.27;;;6.10;99.90;;;;;;4954408;28;20485;-74
2024/01/06 09:22:53;;;;;;;1.27;1.00;;;6.10;99.90;;;;;;4952061;28;20035;-70
2024/01/06 09:25:19;;;;;;;3.90;1.83;;;6.00;99.90;;;;;;4952743;28;20030;-74
2024/01/06 09:27:45;;;;;;;2.25;1.17;;;6.10;99.90;;;;;;4952999;28;20433;-71
2024/01/06 09:30:11;;;;;;;2.72;0.73;;;6.20;99.90;;;;;;4952732;28;20088;-76
2024/01/06 09:32:36;;;;;;;1.23;0.70;;;6.30;99.90;;;;;;4953047;28;20035;-74
2024/01/06 09:35:03;;;;;;;1.52;0.95;;;6.30;99.90;;;;;;4955248;28;20031;-73
2024/01/06 09:37:29;;;;;;;1.13;0.75;;;6.40;99.90;;;;;;4952546;28;20106;-72
2024/01/06 09:39:54;;;;;;;3.03;1.20;;;6.40;99.90;;;;;;4959572;28;20118;-74
2024/01/06 09:42:20;;;;;;;2.05;0.93;;;6.40;99.90;;;;;;4952699;28;20063;-71
2024/01/06 09:44:46;;;;;;;0.95;0.73;;;6.50;99.90;;;;;;4952502;28;20434;-73
2024/01/06 09:47:12;;;;;;;2.60;1.00;;;6.50;99.90;;;;;;4952400;28;20219;-74
2024/01/06 09:49:41;;;;;;;3.03;0.80;;;6.50;99.90;;;;;;4953099;28;20023;-74
2024/01/06 09:52:15;;;;;;;0.90;0.82;;;6.70;99.90;;;;;;4951017;28;20035;-71
2024/01/06 09:54:50;;;;;;;1.23;0.95;;;6.60;99.90;;;;;;4953006;28;20042;-73
2024/01/06 09:57:16;;;;;;;3.15;1.35;;;6.70;99.90;;;;;;4952738;28;20039;-75
2024/01/06 09:59:44;;;;;;;3.03;1.08;;;6.80;99.90;;;;;;4952038;28;20035;-74
2024/01/06 10:02:13;;;;;;;1.42;1.02;;;6.90;99.90;;;;;;4957946;28;20059;-72
2024/01/06 10:04:39;;;;;;;2.13;0.75;;;6.90;99.90;;;;;;4957288;28;20089;-74
2024/01/06 10:07:05;;;;;;;2.85;1.17;;;6.90;99.90;;;;;;4951814;28;20464;-72
2024/01/06 10:09:30;;;;;;;2.03;0.88;;;6.90;99.90;;;;;;4950326;28;20031;-78
2024/01/06 10:11:59;;;;;;;1.58;0.88;;;7.00;99.90;;;;;;4954389;28;20118;-72
2024/01/06 10:14:25;;;;;;;1.48;1.00;;;7.00;99.90;;;;;;4953200;28;20110;-73
2024/01/06 10:16:52;;;;;;;3.08;1.15;;;7.00;99.90;;;;;;4949034;28;20127;-73
2024/01/06 10:19:18;;;;;;;2.72;1.35;;;6.90;99.90;;;;;;4963062;28;20101;-73
2024/01/06 10:21:44;;;;;;;2.35;1.02;;;6.80;99.90;;;;;;4950383;28;20505;-72
2024/01/06 10:24:10;;;;;;;1.10;0.90;;;6.70;99.90;;;;;;4943555;29;20526;-74
2024/01/06 10:26:36;;;;;;;2.03;1.15;;;6.60;99.90;;;;;;4965137;28;20063;-74
2024/01/06 10:29:02;;;;;;;1.17;1.08;;;6.40;99.90;;;;;;4962719;28;20038;-74
2024/01/06 10:31:29;;;;;;;2.15;1.02;;;6.30;99.90;;;;;;4951850;29;20031;-73
2024/01/06 10:33:55;;;;;;;1.13;0.70;;;6.20;99.90;;;;;;4949224;29;20035;-74
2024/01/06 10:36:23;;;;;;;1.17;1.00;;;6.00;99.90;;;;;;4951705;28;20038;-72
2024/01/06 10:38:49;;;;;;;3.38;1.08;;;6.00;99.90;;;;;;4952199;29;20094;-70
2024/01/06 10:41:16;;;;;;;5.88;1.23;;;6.00;99.90;;;;;;4951602;28;20134;-72
2024/01/06 10:43:43;;;;;;;2.78;0.80;;;5.90;99.90;;;;;;4951574;28;20105;-73
2024/01/06 10:46:10;;;;;;;1.38;0.80;;;5.90;99.90;;;;;;4951558;28;20031;-73
2024/01/06 10:48:42;;;;;;;2.33;1.27;;;5.90;99.90;;;;;;4952389;28;20023;-73
2024/01/06 10:51:09;;;;;;;1.73;1.08;;;6.00;99.90;;;;;;4931053;29;20066;-73
2024/01/06 10:53:39;;;;;;;1.55;1.05;;;6.00;99.90;;;;;;4952025;28;20392;-74
2024/01/06 10:56:09;;;;;;;1.48;1.10;;;6.00;99.90;;;;;;4951243;28;20034;-73
2024/01/06 10:58:42;;;;;;;;;;;6.10;99.90;;;;;;4952190;28;20039;-73
2024/01/06 11:01:09;;;;;;;1.30;0.88;;;6.10;99.90;;;;;;4952476;28;20374;-72
2024/01/06 11:03:38;;;;;;;2.00;0.55;;;6.10;99.90;;;;;;4950563;28;20134;-73
2024/01/06 11:06:05;;;;;;;1.98;1.10;;;6.10;99.90;;;;;;4954294;28;20047;-72
2024/01/06 11:08:35;;;;;;;1.92;0.75;;;6.00;99.90;;;;;;4951148;28;20102;-72
2024/01/06 11:11:01;;;;;;;;;;;6.00;99.90;;;;;;4951495;28;20031;-75
2024/01/06 11:13:27;;;;;;;1.48;1.00;;;6.00;99.90;;;;;;4950415;28;19913;-76
2024/01/06 11:15:53;;;;;;;1.95;1.00;;;6.00;99.90;;;;;;4955621;28;20098;-69
2024/01/06 11:18:39;;;;;;;2.53;1.27;;;6.00;99.90;;;;;;4952294;28;20503;-72
2024/01/06 11:21:18;;;;;;;1.20;0.80;;;6.00;99.90;;;;;;4959874;28;20239;-72
2024/01/06 11:23:44;;;;;;;0.88;0.82;;;6.10;99.90;;;;;;4952935;28;20039;-72
2024/01/06 11:26:10;;;;;;;2.65;1.45;;;6.10;99.90;;;;;;4947794;28;20035;-72
2024/01/06 11:28:46;;;;;;;1.63;1.00;;;6.20;99.90;;;;;;4966659;28;20023;-73
2024/01/06 11:31:12;;;;;;;1.08;0.82;;;6.30;99.90;;;;;;4958447;28;20055;-71
2024/01/06 11:33:47;;;;;;;2.20;1.25;;;6.40;99.90;;;;;;4951030;28;20034;-73
2024/01/06 11:36:14;;;;;;;1.50;0.98;;;6.30;99.90;;;;;;4945484;28;20441;-72
2024/01/06 11:38:40;;;;;;;2.10;1.17;;;6.30;99.90;;;;;;4951397;28;20355;-72
2024/01/06 11:41:11;;;;;;;3.13;1.50;;;6.30;99.90;;;;;;4950145;28;20030;-70
2024/01/06 11:43:39;;;;;;;2.03;1.73;;;6.30;99.90;;;;;;4950681;28;20042;-72
2024/01/06 11:46:09;;;;;;;1.98;1.77;;;6.30;99.90;;;;;;4950308;28;20681;-72
2024/01/06 11:48:36;;;;;;;1.70;1.60;;;6.30;99.90;;;;;;4967157;28;20031;-72
2024/01/06 11:51:03;;;;;;;1.65;1.55;;;6.30;99.90;;;;;;4956297;28;20099;-72
2024/01/06 11:53:29;;;;;;;1.90;1.77;;;6.30;99.90;;;;;;4945437;29;20102;-72
2024/01/06 11:55:55;;;;;;;2.65;1.90;;;6.30;99.90;;;;;;4950615;28;20032;-70
2024/01/06 11:58:20;;;;;;;2.13;1.77;;;6.20;99.90;;;;;;4960097;28;20065;-74
2024/01/06 12:00:56;;;;;;;2.58;2.05;;;6.20;99.90;;;;;;4951443;28;20118;-73
2024/01/06 12:03:23;;;;;;;3.55;1.88;;;6.30;99.90;;;;;;4963768;28;20053;-74
2024/01/06 12:06:02;;;;;;;4.07;2.30;;;6.30;99.90;;;;;;4952894;28;20038;-71
2024/01/06 12:08:29;;;;;;;2.27;1.97;;;6.30;99.90;;;;;;4934043;28;20420;-73
2024/01/06 12:11:04;;;;;;;3.53;2.47;;;6.20;99.90;;;;;;4943966;28;20469;-74
2024/01/06 12:13:30;;;;;;;2.38;2.17;;;6.20;99.90;;;;;;4950879;28;20035;-75
2024/01/06 12:15:56;;;;;;;1.83;1.73;;;6.30;99.90;;;;;;4953728;28;20074;-74
2024/01/06 12:18:22;;;;;;;4.97;2.20;;;6.20;99.90;;;;;;4955155;28;20471;-74
2024/01/06 12:20:47;;;;;;;2.30;2.10;;;6.30;99.90;;;;;;4953773;28;20140;-73
2024/01/06 12:23:24;;;;;;;2.42;2.03;;;6.20;99.90;;;;;;4952610;29;20043;-72
2024/01/06 12:25:49;;;;;;;3.08;2.15;;;6.20;99.90;;;;;;4954764;28;20035;-72
2024/01/06 12:28:15;;;;;;;3.08;2.00;;;6.10;99.90;;;;;;4953947;28;20053;-74
2024/01/06 12:30:41;;;;;;;3.03;2.47;;;6.10;99.90;;;;;;4956066;28;20034;-73
2024/01/06 12:33:07;;;;;;;2.70;2.28;;;6.00;99.90;;;;;;4945530;28;20035;-73
2024/01/06 12:35:34;;;;;;;2.20;2.00;;;6.00;99.90;;;;;;4951838;28;20487;-74
2024/01/06 12:38:01;;;;;;;4.05;2.33;;;6.00;99.90;;;;;;4953591;28;20023;-77
2024/01/06 12:40:27;;;;;;;1.90;1.42;;;5.90;99.90;;;;;;4955730;28;20380;-77
2024/01/06 12:42:52;;;;;;;1.58;1.48;;;6.00;99.90;;;;;;4952297;28;20163;-75
2024/01/06 12:45:18;;;;;;;2.33;2.05;;;6.00;99.90;;;;;;4955861;28;20676;-77
2024/01/06 12:47:43;;;;;;;2.42;2.22;;;6.00;99.90;;;;;;4954946;28;20097;-76
2024/01/06 12:50:09;;;;;;;4.38;2.60;;;6.00;99.90;;;;;;4945780;28;20263;-76
2024/01/06 12:52:35;;;;;;;2.28;1.85;;;6.10;99.90;;;;;;4954722;28;20481;-77